sensor_id;sensor_type;location;lat;lon;timestamp;P1;durP1;ratioP1;P2;durP2;ratioP2
74044;SDS011;62389;51.412;5.436;2022-09-16T00:00:43;4.55;;;1.65;;
74044;SDS011;62389;51.412;5.436;2022-09-16T00:03:10;5.00;;;2.03;;
74044;SDS011;62389;51.412;5.436;2022-09-16T00:05:40;4.25;;;2.33;;
74044;SDS011;62389;51.412;5.436;2022-09-16T00:08:06;4.50;;;2.20;;
74044;SDS011;62389;51.412;5.436;2022-09-16T00:10:32;5.63;;;2.78;;
74044;SDS011;62389;51.412;5.436;2022-09-16T00:12:57;5.22;;;2.15;;
74044;SDS011;62389;51.412;5.436;2022-09-16T00:15:22;3.72;;;2.08;;
74044;SDS011;62389;51.412;5.436;2022-09-16T00:17:48;11.43;;;3.22;;
74044;SDS011;62389;51.412;5.436;2022-09-16T00:20:13;7.78;;;2.80;;
74044;SDS011;62389;51.412;5.436;2022-09-16T00:22:38;6.18;;;2.60;;
74044;SDS011;62389;51.412;5.436;2022-09-16T00:25:04;5.25;;;3.00;;
74044;SDS011;62389;51.412;5.436;2022-09-16T00:27:30;5.60;;;2.28;;
74044;SDS011;62389;51.412;5.436;2022-09-16T00:29:55;4.22;;;2.72;;
74044;SDS011;62389;51.412;5.436;2022-09-16T00:32:20;7.03;;;3.15;;
74044;SDS011;62389;51.412;5.436;2022-09-16T00:34:48;11.48;;;3.28;;
74044;SDS011;62389;51.412;5.436;2022-09-16T00:37:13;5.82;;;2.92;;
74044;SDS011;62389;51.412;5.436;2022-09-16T00:39:38;8.30;;;3.45;;
74044;SDS011;62389;51.412;5.436;2022-09-16T00:42:04;5.15;;;2.75;;
74044;SDS011;62389;51.412;5.436;2022-09-16T00:47:40;8.02;;;2.28;;
74044;SDS011;62389;51.412;5.436;2022-09-16T00:50:22;7.47;;;2.55;;
74044;SDS011;62389;51.412;5.436;2022-09-16T00:52:56;5.20;;;2.22;;
74044;SDS011;62389;51.412;5.436;2022-09-16T00:55:26;4.30;;;2.00;;
74044;SDS011;62389;51.412;5.436;2022-09-16T00:57:55;5.25;;;2.00;;
74044;SDS011;62389;51.412;5.436;2022-09-16T01:00:26;5.30;;;2.00;;
74044;SDS011;62389;51.412;5.436;2022-09-16T01:02:52;9.05;;;1.95;;
74044;SDS011;62389;51.412;5.436;2022-09-16T01:05:18;4.88;;;2.20;;
74044;SDS011;62389;51.412;5.436;2022-09-16T01:07:47;5.50;;;2.05;;
74044;SDS011;62389;51.412;5.436;2022-09-16T01:10:16;3.50;;;1.90;;
74044;SDS011;62389;51.412;5.436;2022-09-16T01:12:50;5.88;;;2.22;;
74044;SDS011;62389;51.412;5.436;2022-09-16T01:15:19;5.72;;;1.90;;
74044;SDS011;62389;51.412;5.436;2022-09-16T01:20:53;7.82;;;1.92;;
74044;SDS011;62389;51.412;5.436;2022-09-16T01:31:33;6.38;;;1.95;;
74044;SDS011;62389;51.412;5.436;2022-09-16T01:36:58;7.00;;;1.80;;
74044;SDS011;62389;51.412;5.436;2022-09-16T01:39:38;4.90;;;1.60;;
74044;SDS011;62389;51.412;5.436;2022-09-16T01:44:51;4.45;;;1.88;;
74044;SDS011;62389;51.412;5.436;2022-09-16T01:56:04;7.28;;;2.13;;
74044;SDS011;62389;51.412;5.436;2022-09-16T01:58:57;7.70;;;1.70;;
74044;SDS011;62389;51.412;5.436;2022-09-16T02:01:54;6.40;;;1.95;;
74044;SDS011;62389;51.412;5.436;2022-09-16T02:04:31;16.38;;;2.78;;
74044;SDS011;62389;51.412;5.436;2022-09-16T02:07:02;4.65;;;1.70;;
74044;SDS011;62389;51.412;5.436;2022-09-16T02:09:32;5.13;;;2.50;;
74044;SDS011;62389;51.412;5.436;2022-09-16T02:12:03;6.38;;;1.85;;
74044;SDS011;62389;51.412;5.436;2022-09-16T02:14:52;4.60;;;2.10;;
74044;SDS011;62389;51.412;5.436;2022-09-16T02:17:24;6.32;;;2.33;;
74044;SDS011;62389;51.412;5.436;2022-09-16T02:19:59;7.18;;;2.55;;
74044;SDS011;62389;51.412;5.436;2022-09-16T02:22:28;4.53;;;1.48;;
74044;SDS011;62389;51.412;5.436;2022-09-16T02:24:58;6.65;;;1.83;;
74044;SDS011;62389;51.412;5.436;2022-09-16T02:27:26;5.70;;;1.85;;
74044;SDS011;62389;51.412;5.436;2022-09-16T02:29:55;6.72;;;1.60;;
74044;SDS011;62389;51.412;5.436;2022-09-16T02:32:25;9.38;;;2.95;;
74044;SDS011;62389;51.412;5.436;2022-09-16T02:34:53;3.00;;;1.50;;
74044;SDS011;62389;51.412;5.436;2022-09-16T02:37:28;7.53;;;2.15;;
74044;SDS011;62389;51.412;5.436;2022-09-16T02:39:59;5.10;;;1.33;;
74044;SDS011;62389;51.412;5.436;2022-09-16T02:42:30;5.72;;;1.60;;
74044;SDS011;62389;51.412;5.436;2022-09-16T02:44:56;3.53;;;1.45;;
74044;SDS011;62389;51.412;5.436;2022-09-16T02:52:22;3.47;;;1.90;;
74044;SDS011;62389;51.412;5.436;2022-09-16T02:54:56;3.40;;;1.70;;
74044;SDS011;62389;51.412;5.436;2022-09-16T02:57:30;3.88;;;1.15;;
74044;SDS011;62389;51.412;5.436;2022-09-16T02:59:56;3.67;;;1.40;;
74044;SDS011;62389;51.412;5.436;2022-09-16T03:02:22;3.97;;;1.10;;
74044;SDS011;62389;51.412;5.436;2022-09-16T03:04:47;2.92;;;1.35;;
74044;SDS011;62389;51.412;5.436;2022-09-16T03:07:13;4.45;;;1.40;;
74044;SDS011;62389;51.412;5.436;2022-09-16T03:09:42;3.78;;;1.77;;
74044;SDS011;62389;51.412;5.436;2022-09-16T03:20:22;3.45;;;1.40;;
74044;SDS011;62389;51.412;5.436;2022-09-16T03:29:32;4.88;;;1.77;;
74044;SDS011;62389;51.412;5.436;2022-09-16T03:32:22;6.68;;;1.63;;
74044;SDS011;62389;51.412;5.436;2022-09-16T03:35:03;5.28;;;1.23;;
74044;SDS011;62389;51.412;5.436;2022-09-16T03:37:31;5.32;;;1.42;;
74044;SDS011;62389;51.412;5.436;2022-09-16T03:40:00;5.32;;;1.40;;
74044;SDS011;62389;51.412;5.436;2022-09-16T03:45:04;6.05;;;1.55;;
74044;SDS011;62389;51.412;5.436;2022-09-16T03:47:31;5.13;;;1.50;;
74044;SDS011;62389;51.412;5.436;2022-09-16T03:49:56;4.82;;;1.70;;
74044;SDS011;62389;51.412;5.436;2022-09-16T03:52:22;6.70;;;1.60;;
74044;SDS011;62389;51.412;5.436;2022-09-16T03:54:47;5.15;;;1.80;;
74044;SDS011;62389;51.412;5.436;2022-09-16T03:57:12;6.38;;;1.95;;
74044;SDS011;62389;51.412;5.436;2022-09-16T03:59:38;7.25;;;2.10;;
74044;SDS011;62389;51.412;5.436;2022-09-16T04:02:03;4.20;;;2.13;;
74044;SDS011;62389;51.412;5.436;2022-09-16T04:04:28;6.35;;;2.10;;
74044;SDS011;62389;51.412;5.436;2022-09-16T04:06:54;3.80;;;1.60;;
74044;SDS011;62389;51.412;5.436;2022-09-16T04:09:19;7.20;;;2.47;;
74044;SDS011;62389;51.412;5.436;2022-09-16T04:11:44;3.72;;;1.42;;
74044;SDS011;62389;51.412;5.436;2022-09-16T04:14:10;7.05;;;2.13;;
74044;SDS011;62389;51.412;5.436;2022-09-16T04:16:35;7.28;;;2.20;;
74044;SDS011;62389;51.412;5.436;2022-09-16T04:19:00;5.47;;;1.63;;
74044;SDS011;62389;51.412;5.436;2022-09-16T04:21:26;2.50;;;1.50;;
74044;SDS011;62389;51.412;5.436;2022-09-16T04:23:53;6.60;;;1.25;;
74044;SDS011;62389;51.412;5.436;2022-09-16T04:26:18;6.45;;;1.73;;
74044;SDS011;62389;51.412;5.436;2022-09-16T04:28:43;3.55;;;1.30;;
74044;SDS011;62389;51.412;5.436;2022-09-16T04:31:10;4.05;;;1.25;;
74044;SDS011;62389;51.412;5.436;2022-09-16T04:33:37;5.15;;;1.40;;
74044;SDS011;62389;51.412;5.436;2022-09-16T04:36:13;7.72;;;1.63;;
74044;SDS011;62389;51.412;5.436;2022-09-16T04:38:40;5.30;;;1.35;;
74044;SDS011;62389;51.412;5.436;2022-09-16T04:41:09;7.68;;;2.10;;
74044;SDS011;62389;51.412;5.436;2022-09-16T04:43:37;3.65;;;1.65;;
74044;SDS011;62389;51.412;5.436;2022-09-16T04:46:03;4.50;;;1.70;;
74044;SDS011;62389;51.412;5.436;2022-09-16T04:48:29;4.90;;;1.40;;
74044;SDS011;62389;51.412;5.436;2022-09-16T04:51:00;8.05;;;1.77;;
74044;SDS011;62389;51.412;5.436;2022-09-16T04:53:27;4.43;;;1.85;;
74044;SDS011;62389;51.412;5.436;2022-09-16T04:55:52;4.65;;;1.50;;
74044;SDS011;62389;51.412;5.436;2022-09-16T04:58:17;4.60;;;1.40;;
74044;SDS011;62389;51.412;5.436;2022-09-16T05:00:43;4.95;;;1.55;;
74044;SDS011;62389;51.412;5.436;2022-09-16T05:03:09;7.70;;;1.40;;
74044;SDS011;62389;51.412;5.436;2022-09-16T05:05:34;4.93;;;1.10;;
74044;SDS011;62389;51.412;5.436;2022-09-16T05:08:00;3.90;;;1.20;;
74044;SDS011;62389;51.412;5.436;2022-09-16T05:10:25;3.88;;;1.08;;
74044;SDS011;62389;51.412;5.436;2022-09-16T05:12:52;6.03;;;1.23;;
74044;SDS011;62389;51.412;5.436;2022-09-16T05:15:18;3.40;;;1.30;;
74044;SDS011;62389;51.412;5.436;2022-09-16T05:17:44;4.75;;;1.50;;
74044;SDS011;62389;51.412;5.436;2022-09-16T05:20:09;4.65;;;2.53;;
74044;SDS011;62389;51.412;5.436;2022-09-16T05:22:35;4.15;;;1.45;;
74044;SDS011;62389;51.412;5.436;2022-09-16T05:25:01;2.38;;;1.00;;
74044;SDS011;62389;51.412;5.436;2022-09-16T05:29:57;3.58;;;1.00;;
74044;SDS011;62389;51.412;5.436;2022-09-16T05:32:22;3.92;;;1.10;;
74044;SDS011;62389;51.412;5.436;2022-09-16T05:34:48;2.75;;;0.90;;
74044;SDS011;62389;51.412;5.436;2022-09-16T05:37:14;3.22;;;0.90;;
74044;SDS011;62389;51.412;5.436;2022-09-16T05:39:42;3.05;;;0.90;;
74044;SDS011;62389;51.412;5.436;2022-09-16T05:42:08;2.95;;;1.00;;
74044;SDS011;62389;51.412;5.436;2022-09-16T05:44:34;3.67;;;1.20;;
74044;SDS011;62389;51.412;5.436;2022-09-16T05:46:59;4.35;;;1.45;;
74044;SDS011;62389;51.412;5.436;2022-09-16T05:49:25;6.05;;;1.73;;
74044;SDS011;62389;51.412;5.436;2022-09-16T05:51:51;4.32;;;1.90;;
74044;SDS011;62389;51.412;5.436;2022-09-16T05:54:17;2.65;;;1.50;;
74044;SDS011;62389;51.412;5.436;2022-09-16T05:56:43;3.08;;;1.60;;
74044;SDS011;62389;51.412;5.436;2022-09-16T05:59:09;4.35;;;1.70;;
74044;SDS011;62389;51.412;5.436;2022-09-16T06:01:36;4.07;;;1.80;;
74044;SDS011;62389;51.412;5.436;2022-09-16T06:04:04;4.65;;;1.60;;
74044;SDS011;62389;51.412;5.436;2022-09-16T06:06:40;5.28;;;1.83;;
74044;SDS011;62389;51.412;5.436;2022-09-16T06:09:15;3.75;;;1.30;;
74044;SDS011;62389;51.412;5.436;2022-09-16T06:11:51;5.43;;;1.35;;
74044;SDS011;62389;51.412;5.436;2022-09-16T06:14:18;4.57;;;1.73;;
74044;SDS011;62389;51.412;5.436;2022-09-16T06:16:44;5.47;;;1.58;;
74044;SDS011;62389;51.412;5.436;2022-09-16T06:19:11;4.38;;;1.80;;
74044;SDS011;62389;51.412;5.436;2022-09-16T06:21:39;2.95;;;1.88;;
74044;SDS011;62389;51.412;5.436;2022-09-16T06:24:05;5.30;;;2.65;;
74044;SDS011;62389;51.412;5.436;2022-09-16T06:26:35;3.38;;;1.80;;
74044;SDS011;62389;51.412;5.436;2022-09-16T06:29:02;3.85;;;1.42;;
74044;SDS011;62389;51.412;5.436;2022-09-16T06:31:28;3.67;;;1.50;;
74044;SDS011;62389;51.412;5.436;2022-09-16T06:33:53;2.88;;;1.30;;
74044;SDS011;62389;51.412;5.436;2022-09-16T06:36:26;4.35;;;1.70;;
74044;SDS011;62389;51.412;5.436;2022-09-16T06:38:56;3.58;;;1.55;;
74044;SDS011;62389;51.412;5.436;2022-09-16T06:41:21;5.22;;;1.48;;
74044;SDS011;62389;51.412;5.436;2022-09-16T06:43:48;3.35;;;1.60;;
74044;SDS011;62389;51.412;5.436;2022-09-16T06:46:16;6.47;;;1.98;;
74044;SDS011;62389;51.412;5.436;2022-09-16T06:48:44;4.50;;;1.92;;
74044;SDS011;62389;51.412;5.436;2022-09-16T06:51:13;5.50;;;1.83;;
74044;SDS011;62389;51.412;5.436;2022-09-16T06:53:40;3.42;;;1.52;;
74044;SDS011;62389;51.412;5.436;2022-09-16T06:56:08;8.32;;;1.65;;
74044;SDS011;62389;51.412;5.436;2022-09-16T06:58:36;5.18;;;1.77;;
74044;SDS011;62389;51.412;5.436;2022-09-16T07:01:07;7.85;;;2.33;;
74044;SDS011;62389;51.412;5.436;2022-09-16T07:03:37;3.75;;;1.38;;
74044;SDS011;62389;51.412;5.436;2022-09-16T07:06:04;6.47;;;1.60;;
74044;SDS011;62389;51.412;5.436;2022-09-16T07:08:30;4.40;;;1.77;;
74044;SDS011;62389;51.412;5.436;2022-09-16T07:10:57;3.85;;;1.50;;
74044;SDS011;62389;51.412;5.436;2022-09-16T07:13:24;4.25;;;1.13;;
74044;SDS011;62389;51.412;5.436;2022-09-16T07:15:50;7.00;;;2.28;;
74044;SDS011;62389;51.412;5.436;2022-09-16T07:18:16;4.10;;;1.13;;
74044;SDS011;62389;51.412;5.436;2022-09-16T07:20:42;4.57;;;1.60;;
74044;SDS011;62389;51.412;5.436;2022-09-16T07:23:07;4.90;;;1.60;;
74044;SDS011;62389;51.412;5.436;2022-09-16T07:25:32;5.35;;;1.50;;
74044;SDS011;62389;51.412;5.436;2022-09-16T07:27:59;4.75;;;1.30;;
74044;SDS011;62389;51.412;5.436;2022-09-16T07:30:24;4.63;;;1.60;;
74044;SDS011;62389;51.412;5.436;2022-09-16T07:32:49;3.03;;;1.25;;
74044;SDS011;62389;51.412;5.436;2022-09-16T07:35:15;3.95;;;1.08;;
74044;SDS011;62389;51.412;5.436;2022-09-16T07:37:40;4.60;;;1.00;;
74044;SDS011;62389;51.412;5.436;2022-09-16T07:40:06;2.90;;;1.10;;
74044;SDS011;62389;51.412;5.436;2022-09-16T07:42:32;2.60;;;0.88;;
74044;SDS011;62389;51.412;5.436;2022-09-16T07:44:57;2.25;;;1.15;;
74044;SDS011;62389;51.412;5.436;2022-09-16T07:47:23;3.10;;;1.08;;
74044;SDS011;62389;51.412;5.436;2022-09-16T07:49:48;3.65;;;1.20;;
74044;SDS011;62389;51.412;5.436;2022-09-16T07:52:19;6.28;;;1.00;;
74044;SDS011;62389;51.412;5.436;2022-09-16T07:54:45;4.80;;;1.13;;
74044;SDS011;62389;51.412;5.436;2022-09-16T07:57:10;4.32;;;1.38;;
74044;SDS011;62389;51.412;5.436;2022-09-16T07:59:36;3.40;;;1.40;;
74044;SDS011;62389;51.412;5.436;2022-09-16T08:02:01;2.70;;;1.45;;
74044;SDS011;62389;51.412;5.436;2022-09-16T08:04:27;2.67;;;1.73;;
74044;SDS011;62389;51.412;5.436;2022-09-16T08:06:52;4.60;;;1.70;;
74044;SDS011;62389;51.412;5.436;2022-09-16T08:09:17;3.28;;;1.45;;
74044;SDS011;62389;51.412;5.436;2022-09-16T08:11:43;6.32;;;1.35;;
74044;SDS011;62389;51.412;5.436;2022-09-16T08:14:08;3.58;;;1.23;;
74044;SDS011;62389;51.412;5.436;2022-09-16T08:16:33;5.40;;;1.45;;
74044;SDS011;62389;51.412;5.436;2022-09-16T08:18:59;3.33;;;1.17;;
74044;SDS011;62389;51.412;5.436;2022-09-16T08:21:25;7.38;;;1.52;;
74044;SDS011;62389;51.412;5.436;2022-09-16T08:23:52;4.03;;;1.35;;
74044;SDS011;62389;51.412;5.436;2022-09-16T08:26:18;2.88;;;0.90;;
74044;SDS011;62389;51.412;5.436;2022-09-16T08:28:44;4.20;;;1.23;;
74044;SDS011;62389;51.412;5.436;2022-09-16T08:33:40;3.17;;;0.93;;
74044;SDS011;62389;51.412;5.436;2022-09-16T08:36:08;2.95;;;0.63;;
74044;SDS011;62389;51.412;5.436;2022-09-16T08:38:38;3.35;;;0.90;;
74044;SDS011;62389;51.412;5.436;2022-09-16T08:47:16;2.10;;;0.63;;
74044;SDS011;62389;51.412;5.436;2022-09-16T08:49:51;2.60;;;0.98;;
74044;SDS011;62389;51.412;5.436;2022-09-16T08:52:28;3.63;;;1.00;;
74044;SDS011;62389;51.412;5.436;2022-09-16T08:55:19;1.83;;;0.80;;
74044;SDS011;62389;51.412;5.436;2022-09-16T08:58:00;2.80;;;0.75;;
74044;SDS011;62389;51.412;5.436;2022-09-16T09:00:41;2.95;;;0.80;;
74044;SDS011;62389;51.412;5.436;2022-09-16T09:06:01;3.13;;;0.80;;
74044;SDS011;62389;51.412;5.436;2022-09-16T09:16:24;2.92;;;0.68;;
74044;SDS011;62389;51.412;5.436;2022-09-16T09:26:49;2.47;;;0.70;;
74044;SDS011;62389;51.412;5.436;2022-09-16T09:40:15;3.97;;;0.80;;
74044;SDS011;62389;51.412;5.436;2022-09-16T09:45:39;2.70;;;0.70;;
74044;SDS011;62389;51.412;5.436;2022-09-16T09:48:24;2.97;;;0.63;;
74044;SDS011;62389;51.412;5.436;2022-09-16T09:50:51;2.10;;;0.68;;
74044;SDS011;62389;51.412;5.436;2022-09-16T09:53:19;2.05;;;0.63;;
74044;SDS011;62389;51.412;5.436;2022-09-16T09:58:47;3.50;;;0.57;;
74044;SDS011;62389;51.412;5.436;2022-09-16T10:01:22;4.55;;;0.55;;
74044;SDS011;62389;51.412;5.436;2022-09-16T10:03:49;1.67;;;0.47;;
74044;SDS011;62389;51.412;5.436;2022-09-16T10:06:19;2.22;;;0.40;;
74044;SDS011;62389;51.412;5.436;2022-09-16T10:08:50;4.45;;;0.57;;
74044;SDS011;62389;51.412;5.436;2022-09-16T10:11:19;2.55;;;0.70;;
74044;SDS011;62389;51.412;5.436;2022-09-16T10:13:53;3.88;;;0.63;;
74044;SDS011;62389;51.412;5.436;2022-09-16T10:16:24;3.88;;;0.90;;
74044;SDS011;62389;51.412;5.436;2022-09-16T10:18:57;4.03;;;0.90;;
74044;SDS011;62389;51.412;5.436;2022-09-16T10:21:36;4.82;;;0.93;;
74044;SDS011;62389;51.412;5.436;2022-09-16T10:24:04;3.13;;;0.60;;
74044;SDS011;62389;51.412;5.436;2022-09-16T10:26:29;3.80;;;0.60;;
74044;SDS011;62389;51.412;5.436;2022-09-16T10:28:59;2.85;;;0.60;;
74044;SDS011;62389;51.412;5.436;2022-09-16T10:31:35;2.80;;;0.52;;
74044;SDS011;62389;51.412;5.436;2022-09-16T10:34:03;0.40;;;0.20;;
74044;SDS011;62389;51.412;5.436;2022-09-16T10:36:38;2.03;;;0.35;;
74044;SDS011;62389;51.412;5.436;2022-09-16T10:39:03;1.60;;;0.20;;
74044;SDS011;62389;51.412;5.436;2022-09-16T10:41:31;2.88;;;0.50;;
74044;SDS011;62389;51.412;5.436;2022-09-16T10:44:15;3.47;;;0.30;;
74044;SDS011;62389;51.412;5.436;2022-09-16T10:47:01;5.53;;;0.60;;
74044;SDS011;62389;51.412;5.436;2022-09-16T10:49:33;1.35;;;0.40;;
74044;SDS011;62389;51.412;5.436;2022-09-16T10:54:53;3.47;;;0.50;;
74044;SDS011;62389;51.412;5.436;2022-09-16T11:00:00;3.90;;;0.45;;
74044;SDS011;62389;51.412;5.436;2022-09-16T11:05:33;2.55;;;0.50;;
74044;SDS011;62389;51.412;5.436;2022-09-16T11:11:35;3.65;;;0.52;;
74044;SDS011;62389;51.412;5.436;2022-09-16T11:14:15;1.42;;;0.50;;
74044;SDS011;62389;51.412;5.436;2022-09-16T11:22:22;3.47;;;0.70;;
74044;SDS011;62389;51.412;5.436;2022-09-16T11:30:36;2.60;;;1.17;;
74044;SDS011;62389;51.412;5.436;2022-09-16T11:36:33;3.78;;;0.90;;
74044;SDS011;62389;51.412;5.436;2022-09-16T11:39:14;3.10;;;0.85;;
74044;SDS011;62389;51.412;5.436;2022-09-16T11:42:31;4.35;;;1.00;;
74044;SDS011;62389;51.412;5.436;2022-09-16T11:47:17;2.08;;;0.70;;
74044;SDS011;62389;51.412;5.436;2022-09-16T11:55:16;3.90;;;1.10;;
74044;SDS011;62389;51.412;5.436;2022-09-16T12:00:50;2.13;;;0.80;;
74044;SDS011;62389;51.412;5.436;2022-09-16T12:03:31;3.88;;;0.82;;
74044;SDS011;62389;51.412;5.436;2022-09-16T12:06:20;3.00;;;0.80;;
74044;SDS011;62389;51.412;5.436;2022-09-16T12:08:52;3.55;;;0.95;;
74044;SDS011;62389;51.412;5.436;2022-09-16T12:14:09;2.17;;;0.60;;
74044;SDS011;62389;51.412;5.436;2022-09-16T12:19:10;2.63;;;0.50;;
74044;SDS011;62389;51.412;5.436;2022-09-16T12:21:45;3.60;;;0.70;;
74044;SDS011;62389;51.412;5.436;2022-09-16T12:26:55;3.03;;;0.60;;
74044;SDS011;62389;51.412;5.436;2022-09-16T12:32:14;1.63;;;0.60;;
74044;SDS011;62389;51.412;5.436;2022-09-16T12:34:48;2.95;;;0.55;;
74044;SDS011;62389;51.412;5.436;2022-09-16T12:39:51;2.40;;;0.60;;
74044;SDS011;62389;51.412;5.436;2022-09-16T12:56:27;1.95;;;0.60;;
74044;SDS011;62389;51.412;5.436;2022-09-16T13:01:25;2.45;;;0.40;;
74044;SDS011;62389;51.412;5.436;2022-09-16T13:06:39;5.97;;;0.85;;
74044;SDS011;62389;51.412;5.436;2022-09-16T13:09:16;2.42;;;0.35;;
74044;SDS011;62389;51.412;5.436;2022-09-16T13:11:51;0.68;;;0.30;;
74044;SDS011;62389;51.412;5.436;2022-09-16T13:14:26;1.20;;;0.30;;
74044;SDS011;62389;51.412;5.436;2022-09-16T13:16:55;3.60;;;0.30;;
74044;SDS011;62389;51.412;5.436;2022-09-16T13:19:27;1.88;;;0.20;;
74044;SDS011;62389;51.412;5.436;2022-09-16T13:22:12;2.42;;;0.50;;
74044;SDS011;62389;51.412;5.436;2022-09-16T13:24:39;1.40;;;0.40;;
74044;SDS011;62389;51.412;5.436;2022-09-16T13:27:25;3.13;;;0.55;;
74044;SDS011;62389;51.412;5.436;2022-09-16T13:29:51;2.72;;;0.50;;
74044;SDS011;62389;51.412;5.436;2022-09-16T13:32:39;3.35;;;0.73;;
74044;SDS011;62389;51.412;5.436;2022-09-16T13:37:44;3.17;;;0.50;;
74044;SDS011;62389;51.412;5.436;2022-09-16T13:45:36;1.90;;;0.50;;
74044;SDS011;62389;51.412;5.436;2022-09-16T13:48:15;5.45;;;0.82;;
74044;SDS011;62389;51.412;5.436;2022-09-16T13:50:42;3.70;;;0.88;;
74044;SDS011;62389;51.412;5.436;2022-09-16T13:53:25;2.05;;;0.40;;
74044;SDS011;62389;51.412;5.436;2022-09-16T13:55:56;2.15;;;0.60;;
74044;SDS011;62389;51.412;5.436;2022-09-16T13:58:35;3.22;;;0.60;;
74044;SDS011;62389;51.412;5.436;2022-09-16T14:01:07;4.10;;;0.98;;
74044;SDS011;62389;51.412;5.436;2022-09-16T14:03:43;3.42;;;1.05;;
74044;SDS011;62389;51.412;5.436;2022-09-16T14:11:55;2.30;;;0.60;;
74044;SDS011;62389;51.412;5.436;2022-09-16T14:14:24;2.90;;;0.88;;
74044;SDS011;62389;51.412;5.436;2022-09-16T14:16:51;1.48;;;0.60;;
74044;SDS011;62389;51.412;5.436;2022-09-16T14:24:44;3.95;;;0.90;;
74044;SDS011;62389;51.412;5.436;2022-09-16T14:29:58;1.95;;;0.73;;
74044;SDS011;62389;51.412;5.436;2022-09-16T14:32:26;2.50;;;1.17;;
74044;SDS011;62389;51.412;5.436;2022-09-16T14:34:53;2.83;;;0.80;;
74044;SDS011;62389;51.412;5.436;2022-09-16T14:37:21;3.72;;;0.80;;
74044;SDS011;62389;51.412;5.436;2022-09-16T14:39:53;2.70;;;0.70;;
74044;SDS011;62389;51.412;5.436;2022-09-16T14:42:20;1.48;;;0.60;;
74044;SDS011;62389;51.412;5.436;2022-09-16T14:44:51;3.72;;;0.93;;
74044;SDS011;62389;51.412;5.436;2022-09-16T14:47:33;3.60;;;1.00;;
74044;SDS011;62389;51.412;5.436;2022-09-16T14:50:04;1.52;;;0.82;;
74044;SDS011;62389;51.412;5.436;2022-09-16T14:52:33;3.67;;;0.60;;
74044;SDS011;62389;51.412;5.436;2022-09-16T14:54:59;3.92;;;0.70;;
74044;SDS011;62389;51.412;5.436;2022-09-16T14:57:26;2.33;;;0.60;;
74044;SDS011;62389;51.412;5.436;2022-09-16T14:59:57;3.80;;;0.63;;
74044;SDS011;62389;51.412;5.436;2022-09-16T15:10:27;1.75;;;0.60;;
74044;SDS011;62389;51.412;5.436;2022-09-16T15:12:54;2.05;;;0.90;;
74044;SDS011;62389;51.412;5.436;2022-09-16T15:15:24;3.30;;;0.98;;
74044;SDS011;62389;51.412;5.436;2022-09-16T15:17:59;4.38;;;1.10;;
74044;SDS011;62389;51.412;5.436;2022-09-16T15:20:37;4.20;;;0.65;;
74044;SDS011;62389;51.412;5.436;2022-09-16T15:23:06;4.93;;;0.77;;
74044;SDS011;62389;51.412;5.436;2022-09-16T15:25:51;1.88;;;0.60;;
74044;SDS011;62389;51.412;5.436;2022-09-16T15:28:18;2.38;;;0.75;;
74044;SDS011;62389;51.412;5.436;2022-09-16T15:30:52;3.60;;;0.80;;
74044;SDS011;62389;51.412;5.436;2022-09-16T15:33:35;1.95;;;0.55;;
74044;SDS011;62389;51.412;5.436;2022-09-16T15:36:05;4.90;;;0.90;;
74044;SDS011;62389;51.412;5.436;2022-09-16T15:41:01;6.68;;;0.75;;
74044;SDS011;62389;51.412;5.436;2022-09-16T15:43:28;1.95;;;0.77;;
74044;SDS011;62389;51.412;5.436;2022-09-16T15:46:04;1.63;;;0.65;;
74044;SDS011;62389;51.412;5.436;2022-09-16T15:48:41;4.10;;;1.13;;
74044;SDS011;62389;51.412;5.436;2022-09-16T15:51:18;5.85;;;0.75;;
74044;SDS011;62389;51.412;5.436;2022-09-16T15:53:50;3.25;;;0.80;;
74044;SDS011;62389;51.412;5.436;2022-09-16T15:58:52;2.25;;;0.63;;
74044;SDS011;62389;51.412;5.436;2022-09-16T16:04:01;5.07;;;0.90;;
74044;SDS011;62389;51.412;5.436;2022-09-16T16:09:35;3.33;;;0.77;;
74044;SDS011;62389;51.412;5.436;2022-09-16T16:12:05;4.47;;;0.70;;
74044;SDS011;62389;51.412;5.436;2022-09-16T16:14:34;1.67;;;0.55;;
74044;SDS011;62389;51.412;5.436;2022-09-16T16:17:04;5.15;;;0.80;;
74044;SDS011;62389;51.412;5.436;2022-09-16T16:19:32;6.18;;;0.80;;
74044;SDS011;62389;51.412;5.436;2022-09-16T16:21:58;3.97;;;0.73;;
74044;SDS011;62389;51.412;5.436;2022-09-16T16:24:25;3.63;;;1.05;;
74044;SDS011;62389;51.412;5.436;2022-09-16T16:26:51;4.13;;;1.02;;
74044;SDS011;62389;51.412;5.436;2022-09-16T16:29:16;2.28;;;0.50;;
74044;SDS011;62389;51.412;5.436;2022-09-16T16:34:26;2.88;;;0.55;;
74044;SDS011;62389;51.412;5.436;2022-09-16T16:36:53;2.42;;;0.77;;
74044;SDS011;62389;51.412;5.436;2022-09-16T16:39:19;3.83;;;0.68;;
74044;SDS011;62389;51.412;5.436;2022-09-16T16:41:44;2.42;;;0.55;;
74044;SDS011;62389;51.412;5.436;2022-09-16T16:44:09;2.53;;;0.80;;
74044;SDS011;62389;51.412;5.436;2022-09-16T16:46:35;4.85;;;0.60;;
74044;SDS011;62389;51.412;5.436;2022-09-16T16:49:00;7.28;;;0.80;;
74044;SDS011;62389;51.412;5.436;2022-09-16T16:51:25;1.45;;;0.57;;
74044;SDS011;62389;51.412;5.436;2022-09-16T16:53:51;3.50;;;0.80;;
74044;SDS011;62389;51.412;5.436;2022-09-16T16:56:17;2.67;;;0.60;;
74044;SDS011;62389;51.412;5.436;2022-09-16T16:58:42;4.53;;;0.70;;
74044;SDS011;62389;51.412;5.436;2022-09-16T17:01:09;2.90;;;0.75;;
74044;SDS011;62389;51.412;5.436;2022-09-16T17:03:40;4.72;;;0.60;;
74044;SDS011;62389;51.412;5.436;2022-09-16T17:06:06;6.38;;;0.73;;
74044;SDS011;62389;51.412;5.436;2022-09-16T17:08:33;2.60;;;0.60;;
74044;SDS011;62389;51.412;5.436;2022-09-16T17:13:45;3.03;;;0.80;;
74044;SDS011;62389;51.412;5.436;2022-09-16T17:16:13;2.28;;;0.50;;
74044;SDS011;62389;51.412;5.436;2022-09-16T17:18:42;4.40;;;0.70;;
74044;SDS011;62389;51.412;5.436;2022-09-16T17:21:09;4.72;;;0.63;;
74044;SDS011;62389;51.412;5.436;2022-09-16T17:23:36;3.88;;;1.40;;
74044;SDS011;62389;51.412;5.436;2022-09-16T17:26:03;2.60;;;0.82;;
74044;SDS011;62389;51.412;5.436;2022-09-16T17:30:55;3.50;;;0.65;;
74044;SDS011;62389;51.412;5.436;2022-09-16T17:33:21;3.30;;;0.88;;
74044;SDS011;62389;51.412;5.436;2022-09-16T17:35:46;4.53;;;1.02;;
74044;SDS011;62389;51.412;5.436;2022-09-16T17:38:12;3.08;;;0.75;;
74044;SDS011;62389;51.412;5.436;2022-09-16T17:40:38;3.15;;;0.73;;
74044;SDS011;62389;51.412;5.436;2022-09-16T17:43:03;4.60;;;0.70;;
74044;SDS011;62389;51.412;5.436;2022-09-16T17:45:30;5.53;;;1.33;;
74044;SDS011;62389;51.412;5.436;2022-09-16T17:47:57;2.45;;;0.70;;
74044;SDS011;62389;51.412;5.436;2022-09-16T17:50:23;4.15;;;0.90;;
74044;SDS011;62389;51.412;5.436;2022-09-16T17:52:49;4.20;;;1.25;;
74044;SDS011;62389;51.412;5.436;2022-09-16T17:55:15;5.18;;;1.05;;
74044;SDS011;62389;51.412;5.436;2022-09-16T17:57:40;3.13;;;0.93;;
74044;SDS011;62389;51.412;5.436;2022-09-16T18:00:06;2.47;;;1.00;;
74044;SDS011;62389;51.412;5.436;2022-09-16T18:02:33;3.17;;;0.90;;
74044;SDS011;62389;51.412;5.436;2022-09-16T18:04:59;7.05;;;1.48;;
74044;SDS011;62389;51.412;5.436;2022-09-16T18:07:24;3.20;;;1.23;;
74044;SDS011;62389;51.412;5.436;2022-09-16T18:09:50;3.05;;;1.00;;
74044;SDS011;62389;51.412;5.436;2022-09-16T18:12:15;4.07;;;1.50;;
74044;SDS011;62389;51.412;5.436;2022-09-16T18:14:40;1.98;;;0.80;;
74044;SDS011;62389;51.412;5.436;2022-09-16T18:17:06;4.32;;;1.63;;
74044;SDS011;62389;51.412;5.436;2022-09-16T18:19:31;4.70;;;1.02;;
74044;SDS011;62389;51.412;5.436;2022-09-16T18:21:56;4.15;;;0.85;;
74044;SDS011;62389;51.412;5.436;2022-09-16T18:24:22;6.13;;;1.08;;
74044;SDS011;62389;51.412;5.436;2022-09-16T18:26:47;4.65;;;1.10;;
74044;SDS011;62389;51.412;5.436;2022-09-16T18:29:13;4.93;;;0.85;;
74044;SDS011;62389;51.412;5.436;2022-09-16T18:31:39;4.82;;;1.23;;
74044;SDS011;62389;51.412;5.436;2022-09-16T18:34:11;4.93;;;0.95;;
74044;SDS011;62389;51.412;5.436;2022-09-16T18:36:37;4.13;;;1.13;;